VOZ9457 YPPH-YLEO
Flight info
| Callsign | VOZ9457 |
|---|---|
| Flight time | 1h 18m |
| Altitude | 33000 |
| Route | AMANA Y31 LAKIR Y69 YOKRA |
| Aircraft | B738/M-VGDW/C |
Departure
| Time | 2026-05-01 07:55 |
|---|---|
| Airport | Perth International Airport (YPPH) |
Arrival
| Time | 2026-05-01 09:13 |
|---|---|
| Airport | Leonora Airport (YLEO) |
| Time | Latitude | Longitude | Altitude | Speed | Heading |
|---|---|---|---|---|---|
| 2026-05-01 07:37 | -31.94165 | 115.97057 | 65 ft | 0 kts | 14° |
| 2026-05-01 07:46 | -31.94166 | 115.97056 | 65 ft | 2 kts | 14° |
| 2026-05-01 07:46 | -31.94190 | 115.97048 | 59 ft | 4 kts | 17° |
| 2026-05-01 07:46 | -31.94242 | 115.97037 | 59 ft | 4 kts | 343° |
| 2026-05-01 07:47 | -31.94249 | 115.97040 | 60 ft | 1 kts | 332° |
| 2026-05-01 07:50 | -31.94237 | 115.97032 | 59 ft | 5 kts | 329° |
| 2026-05-01 07:50 | -31.94211 | 115.96945 | 62 ft | 6 kts | 273° |
| 2026-05-01 07:50 | -31.94201 | 115.96902 | 59 ft | 5 kts | 285° |
| 2026-05-01 07:51 | -31.94190 | 115.96861 | 64 ft | 5 kts | 293° |
| 2026-05-01 07:51 | -31.94155 | 115.96826 | 61 ft | 9 kts | 347° |
| 2026-05-01 07:51 | -31.94077 | 115.96844 | 61 ft | 13 kts | 14° |
| 2026-05-01 07:52 | -31.93812 | 115.96921 | 57 ft | 25 kts | 13° |
| 2026-05-01 07:52 | -31.93630 | 115.96974 | 52 ft | 28 kts | 14° |
| 2026-05-01 07:52 | -31.93443 | 115.97028 | 55 ft | 24 kts | 14° |
| 2026-05-01 07:53 | -31.93417 | 115.96837 | 48 ft | 0 kts | 239° |
| 2026-05-01 07:53 | -31.93418 | 115.96835 | 48 ft | 1 kts | 239° |
| 2026-05-01 07:53 | -31.93428 | 115.96815 | 48 ft | 5 kts | 239° |
| 2026-05-01 07:54 | -31.93485 | 115.96705 | 48 ft | 9 kts | 238° |
| 2026-05-01 07:55 | -31.94761 | 115.96293 | 70 ft | 150 kts | 194° |
| 2026-05-01 07:55 | -31.96960 | 115.95642 | 1607 ft | 158 kts | 192° |
| 2026-05-01 07:56 | -32.00838 | 115.94959 | 2984 ft | 220 kts | 168° |
| 2026-05-01 07:56 | -32.03107 | 115.96599 | 3854 ft | 250 kts | 130° |
| 2026-05-01 07:57 | -32.03919 | 115.98432 | 4727 ft | 257 kts | 112° |
| 2026-05-01 07:57 | -32.04909 | 116.02546 | 6524 ft | 265 kts | 108° |
| 2026-05-01 07:58 | -32.05865 | 116.06814 | 8181 ft | 272 kts | 111° |
| 2026-05-01 07:58 | -32.06873 | 116.11181 | 9822 ft | 280 kts | 112° |
| 2026-05-01 07:59 | -32.07970 | 116.15820 | 10616 ft | 317 kts | 112° |
| 2026-05-01 07:59 | -32.08352 | 116.21273 | 11504 ft | 363 kts | 79° |
| 2026-05-01 08:00 | -32.01509 | 116.30940 | 14086 ft | 404 kts | 48° |
| 2026-05-01 08:01 | -31.95603 | 116.38229 | 16052 ft | 412 kts | 49° |
| 2026-05-01 08:01 | -31.93625 | 116.40699 | 16645 ft | 417 kts | 49° |
| 2026-05-01 08:01 | -31.91652 | 116.43163 | 17285 ft | 420 kts | 49° |
| 2026-05-01 08:02 | -31.87607 | 116.48209 | 18510 ft | 428 kts | 48° |
| 2026-05-01 08:02 | -31.85560 | 116.50760 | 19055 ft | 430 kts | 48° |
| 2026-05-01 08:03 | -31.81426 | 116.55906 | 20193 ft | 435 kts | 49° |
| 2026-05-01 08:03 | -31.79339 | 116.58502 | 20748 ft | 438 kts | 49° |
| 2026-05-01 08:03 | -31.75128 | 116.63730 | 21819 ft | 443 kts | 49° |
| 2026-05-01 08:04 | -31.70842 | 116.69003 | 22852 ft | 449 kts | 49° |
| 2026-05-01 08:04 | -31.66493 | 116.74334 | 23854 ft | 455 kts | 49° |
| 2026-05-01 08:05 | -31.62095 | 116.79727 | 24702 ft | 460 kts | 49° |
| 2026-05-01 08:05 | -31.59880 | 116.82440 | 25117 ft | 462 kts | 49° |
| 2026-05-01 08:05 | -31.57646 | 116.85174 | 25523 ft | 464 kts | 49° |
| 2026-05-01 08:06 | -31.53845 | 116.91245 | 26290 ft | 461 kts | 67° |
| 2026-05-01 08:06 | -31.50974 | 116.97925 | 27073 ft | 464 kts | 68° |
| 2026-05-01 08:07 | -31.48073 | 117.04734 | 27834 ft | 469 kts | 68° |
| 2026-05-01 08:07 | -31.45096 | 117.11583 | 28558 ft | 473 kts | 68° |
| 2026-05-01 08:08 | -31.43593 | 117.15006 | 29056 ft | 472 kts | 68° |
| 2026-05-01 08:08 | -31.40598 | 117.21799 | 30177 ft | 467 kts | 68° |
| 2026-05-01 08:09 | -31.37626 | 117.28541 | 30905 ft | 467 kts | 68° |
| 2026-05-01 08:09 | -31.36131 | 117.31932 | 31193 ft | 469 kts | 68° |
| 2026-05-01 08:09 | -31.34634 | 117.35326 | 31526 ft | 469 kts | 67° |
| 2026-05-01 08:10 | -31.31637 | 117.42104 | 32218 ft | 469 kts | 66° |
| 2026-05-01 08:10 | -31.28637 | 117.48881 | 32915 ft | 469 kts | 66° |
| 2026-05-01 08:11 | -31.25349 | 117.55447 | 33212 ft | 478 kts | 56° |
| 2026-05-01 08:11 | -31.21326 | 117.61631 | 33220 ft | 477 kts | 54° |
| 2026-05-01 08:12 | -31.15287 | 117.70739 | 33233 ft | 472 kts | 54° |
| 2026-05-01 08:13 | -31.09307 | 117.79902 | 33233 ft | 474 kts | 54° |
| 2026-05-01 08:13 | -31.03311 | 117.89113 | 33221 ft | 476 kts | 54° |
| 2026-05-01 08:14 | -30.99297 | 117.95264 | 33220 ft | 477 kts | 54° |
| 2026-05-01 08:14 | -30.95278 | 118.01412 | 33220 ft | 477 kts | 54° |
| 2026-05-01 08:15 | -30.89269 | 118.10583 | 33216 ft | 476 kts | 54° |
| 2026-05-01 08:16 | -30.85246 | 118.16712 | 33210 ft | 476 kts | 53° |
| 2026-05-01 08:16 | -30.81230 | 118.22820 | 33210 ft | 475 kts | 53° |
| 2026-05-01 08:17 | -30.77215 | 118.28917 | 33213 ft | 474 kts | 53° |
| 2026-05-01 08:17 | -30.73204 | 118.34999 | 33210 ft | 474 kts | 53° |
| 2026-05-01 08:18 | -30.69190 | 118.41077 | 33207 ft | 474 kts | 53° |
| 2026-05-01 08:19 | -30.61145 | 118.53229 | 33203 ft | 474 kts | 53° |
| 2026-05-01 08:19 | -30.57119 | 118.59297 | 33203 ft | 475 kts | 52° |
| 2026-05-01 08:20 | -30.53113 | 118.65326 | 33196 ft | 475 kts | 52° |
| 2026-05-01 08:20 | -30.49067 | 118.71403 | 33202 ft | 476 kts | 52° |
| 2026-05-01 08:21 | -30.45020 | 118.77475 | 33196 ft | 476 kts | 52° |
| 2026-05-01 08:21 | -30.40968 | 118.83546 | 33194 ft | 476 kts | 52° |
| 2026-05-01 08:22 | -30.36910 | 118.89615 | 33193 ft | 476 kts | 52° |
| 2026-05-01 08:22 | -30.32851 | 118.95677 | 33148 ft | 475 kts | 52° |
| 2026-05-01 08:22 | -30.30842 | 118.98674 | 32839 ft | 468 kts | 52° |
| 2026-05-01 08:23 | -30.28861 | 119.01627 | 32580 ft | 461 kts | 52° |
| 2026-05-01 08:23 | -30.26908 | 119.04535 | 32310 ft | 454 kts | 52° |
| 2026-05-01 08:23 | -30.24985 | 119.07397 | 32050 ft | 448 kts | 53° |
| 2026-05-01 08:23 | -30.23086 | 119.10221 | 31795 ft | 442 kts | 53° |
| 2026-05-01 08:24 | -30.21212 | 119.13006 | 31530 ft | 436 kts | 53° |
| 2026-05-01 08:24 | -30.19362 | 119.15754 | 31279 ft | 431 kts | 53° |
| 2026-05-01 08:24 | -30.17528 | 119.18477 | 31030 ft | 428 kts | 53° |
| 2026-05-01 08:24 | -30.15698 | 119.21193 | 30805 ft | 430 kts | 54° |
| 2026-05-01 08:25 | -30.13850 | 119.23934 | 30570 ft | 433 kts | 54° |
| 2026-05-01 08:25 | -30.12027 | 119.26637 | 30334 ft | 431 kts | 54° |
| 2026-05-01 08:25 | -30.10187 | 119.29361 | 30060 ft | 428 kts | 54° |
| 2026-05-01 08:25 | -30.08360 | 119.32064 | 29778 ft | 426 kts | 54° |
| 2026-05-01 08:26 | -30.06542 | 119.34759 | 29500 ft | 424 kts | 54° |
| 2026-05-01 08:26 | -30.04740 | 119.37442 | 29219 ft | 422 kts | 54° |
| 2026-05-01 08:26 | -30.02948 | 119.40115 | 28946 ft | 420 kts | 53° |
| 2026-05-01 08:26 | -30.01161 | 119.42779 | 28675 ft | 419 kts | 53° |
| 2026-05-01 08:27 | -29.99378 | 119.45436 | 28408 ft | 418 kts | 53° |
| 2026-05-01 08:27 | -29.97602 | 119.48082 | 28144 ft | 417 kts | 53° |
| 2026-05-01 08:27 | -29.95824 | 119.50727 | 27877 ft | 416 kts | 53° |
| 2026-05-01 08:27 | -29.94054 | 119.53358 | 27620 ft | 416 kts | 53° |
| 2026-05-01 08:28 | -29.92280 | 119.55994 | 27367 ft | 415 kts | 53° |
| 2026-05-01 08:28 | -29.90505 | 119.58628 | 27115 ft | 415 kts | 53° |
| 2026-05-01 08:28 | -29.88732 | 119.61258 | 26859 ft | 415 kts | 53° |
| 2026-05-01 08:28 | -29.86958 | 119.63887 | 26604 ft | 415 kts | 52° |
| 2026-05-01 08:29 | -29.85189 | 119.66507 | 26360 ft | 414 kts | 52° |
| 2026-05-01 08:29 | -29.83418 | 119.69129 | 26114 ft | 414 kts | 52° |
| 2026-05-01 08:29 | -29.81648 | 119.71747 | 25870 ft | 414 kts | 52° |
| 2026-05-01 08:29 | -29.79880 | 119.74362 | 25628 ft | 414 kts | 52° |
| 2026-05-01 08:30 | -29.78114 | 119.76972 | 25389 ft | 413 kts | 52° |
| 2026-05-01 08:30 | -29.76347 | 119.79580 | 25153 ft | 413 kts | 52° |
| 2026-05-01 08:30 | -29.74581 | 119.82186 | 24879 ft | 413 kts | 52° |
| 2026-05-01 08:30 | -29.72814 | 119.84792 | 24605 ft | 413 kts | 52° |
| 2026-05-01 08:31 | -29.71118 | 119.87290 | 24420 ft | 410 kts | 52° |
| 2026-05-01 08:31 | -29.69364 | 119.89874 | 24121 ft | 411 kts | 52° |
| 2026-05-01 08:31 | -29.67608 | 119.92457 | 23854 ft | 410 kts | 52° |
| 2026-05-01 08:31 | -29.65856 | 119.95035 | 23508 ft | 408 kts | 52° |
| 2026-05-01 08:32 | -29.64111 | 119.97599 | 23165 ft | 405 kts | 52° |
| 2026-05-01 08:32 | -29.62380 | 120.00143 | 22814 ft | 402 kts | 52° |
| 2026-05-01 08:32 | -29.60662 | 120.02666 | 22471 ft | 400 kts | 52° |
| 2026-05-01 08:32 | -29.58951 | 120.05176 | 22130 ft | 397 kts | 52° |
| 2026-05-01 08:33 | -29.57255 | 120.07664 | 21802 ft | 395 kts | 52° |
| 2026-05-01 08:33 | -29.55565 | 120.10140 | 21469 ft | 393 kts | 52° |
| 2026-05-01 08:33 | -29.53905 | 120.12570 | 21144 ft | 390 kts | 52° |
| 2026-05-01 08:33 | -29.52233 | 120.15018 | 20823 ft | 388 kts | 52° |
| 2026-05-01 08:34 | -29.50548 | 120.17482 | 20498 ft | 387 kts | 52° |
| 2026-05-01 08:34 | -29.48912 | 120.19874 | 20183 ft | 385 kts | 52° |
| 2026-05-01 08:34 | -29.47264 | 120.22282 | 19873 ft | 383 kts | 52° |
| 2026-05-01 08:34 | -29.45620 | 120.24683 | 19567 ft | 381 kts | 52° |
| 2026-05-01 08:35 | -29.43986 | 120.27068 | 19260 ft | 380 kts | 52° |
| 2026-05-01 08:35 | -29.42356 | 120.29445 | 18948 ft | 378 kts | 52° |
| 2026-05-01 08:35 | -29.40734 | 120.31809 | 18654 ft | 377 kts | 52° |
| 2026-05-01 08:35 | -29.39116 | 120.34167 | 18343 ft | 375 kts | 52° |
| 2026-05-01 08:36 | -29.37501 | 120.36519 | 18002 ft | 374 kts | 52° |
| 2026-05-01 08:36 | -29.35895 | 120.38856 | 17669 ft | 372 kts | 52° |
| 2026-05-01 08:36 | -29.34296 | 120.41181 | 17329 ft | 371 kts | 52° |
| 2026-05-01 08:36 | -29.32705 | 120.43494 | 17006 ft | 369 kts | 51° |
| 2026-05-01 08:37 | -29.31118 | 120.45800 | 16678 ft | 368 kts | 51° |
| 2026-05-01 08:37 | -29.29539 | 120.48093 | 16352 ft | 366 kts | 51° |
| 2026-05-01 08:37 | -29.27962 | 120.50382 | 16030 ft | 365 kts | 51° |
| 2026-05-01 08:37 | -29.26393 | 120.52657 | 15718 ft | 363 kts | 51° |
| 2026-05-01 08:38 | -29.24830 | 120.54922 | 15401 ft | 362 kts | 51° |
| 2026-05-01 08:38 | -29.23276 | 120.57174 | 15087 ft | 360 kts | 50° |
| 2026-05-01 08:38 | -29.21726 | 120.59418 | 14776 ft | 358 kts | 50° |
| 2026-05-01 08:38 | -29.20204 | 120.61620 | 14474 ft | 357 kts | 50° |
| 2026-05-01 08:39 | -29.18670 | 120.63840 | 14171 ft | 355 kts | 50° |
| 2026-05-01 08:39 | -29.17143 | 120.66047 | 13864 ft | 353 kts | 50° |
| 2026-05-01 08:39 | -29.15619 | 120.68249 | 13524 ft | 352 kts | 50° |
| 2026-05-01 08:39 | -29.14106 | 120.70435 | 13190 ft | 350 kts | 50° |
| 2026-05-01 08:40 | -29.11096 | 120.74778 | 12529 ft | 347 kts | 49° |
| 2026-05-01 08:40 | -29.09601 | 120.76934 | 12206 ft | 345 kts | 49° |
| 2026-05-01 08:40 | -29.08113 | 120.79077 | 11885 ft | 344 kts | 49° |
| 2026-05-01 08:41 | -29.06631 | 120.81212 | 11601 ft | 340 kts | 49° |
| 2026-05-01 08:41 | -29.05187 | 120.83293 | 11471 ft | 329 kts | 49° |
| 2026-05-01 08:41 | -29.03784 | 120.85316 | 11305 ft | 322 kts | 49° |
| 2026-05-01 08:41 | -29.02400 | 120.87307 | 11101 ft | 316 kts | 48° |
| 2026-05-01 08:42 | -29.01043 | 120.89256 | 10786 ft | 311 kts | 48° |
| 2026-05-01 08:42 | -28.99705 | 120.91180 | 10491 ft | 306 kts | 48° |
| 2026-05-01 08:42 | -28.98391 | 120.93067 | 10207 ft | 301 kts | 47° |
| 2026-05-01 08:42 | -28.97094 | 120.94928 | 9917 ft | 297 kts | 48° |
| 2026-05-01 08:43 | -28.95820 | 120.96756 | 9598 ft | 292 kts | 48° |
| 2026-05-01 08:43 | -28.94565 | 120.98554 | 9286 ft | 288 kts | 49° |
| 2026-05-01 08:43 | -28.93326 | 121.00330 | 8973 ft | 284 kts | 49° |
| 2026-05-01 08:43 | -28.92105 | 121.02078 | 8664 ft | 280 kts | 49° |
| 2026-05-01 08:44 | -28.90901 | 121.03802 | 8363 ft | 276 kts | 50° |
| 2026-05-01 08:44 | -28.89711 | 121.05505 | 8067 ft | 273 kts | 50° |
| 2026-05-01 08:44 | -28.88932 | 121.06619 | 7863 ft | 270 kts | 50° |
| 2026-05-01 08:44 | -28.87768 | 121.08284 | 7569 ft | 267 kts | 51° |
| 2026-05-01 08:45 | -28.86620 | 121.09926 | 7273 ft | 264 kts | 51° |
| 2026-05-01 08:45 | -28.85481 | 121.11553 | 6976 ft | 261 kts | 51° |
| 2026-05-01 08:45 | -28.84357 | 121.13160 | 6694 ft | 258 kts | 52° |
| 2026-05-01 08:45 | -28.83240 | 121.14754 | 6401 ft | 256 kts | 53° |
| 2026-05-01 08:46 | -28.82131 | 121.16339 | 6079 ft | 256 kts | 52° |
| 2026-05-01 08:46 | -28.81018 | 121.17929 | 5796 ft | 257 kts | 53° |
| 2026-05-01 08:46 | -28.79903 | 121.19521 | 5577 ft | 255 kts | 53° |
| 2026-05-01 08:46 | -28.78798 | 121.21097 | 5349 ft | 253 kts | 52° |
| 2026-05-01 08:47 | -28.77702 | 121.22661 | 5137 ft | 252 kts | 52° |
| 2026-05-01 08:47 | -28.76612 | 121.24215 | 4913 ft | 250 kts | 53° |
| 2026-05-01 08:47 | -28.75528 | 121.25759 | 4686 ft | 249 kts | 52° |
| 2026-05-01 08:47 | -28.74433 | 121.27320 | 4446 ft | 257 kts | 53° |
| 2026-05-01 08:48 | -28.73310 | 121.28922 | 4195 ft | 258 kts | 52° |
| 2026-05-01 08:48 | -28.72190 | 121.30516 | 3940 ft | 257 kts | 53° |
| 2026-05-01 08:48 | -28.71074 | 121.32102 | 3687 ft | 256 kts | 52° |
| 2026-05-01 08:48 | -28.69961 | 121.33684 | 3439 ft | 255 kts | 53° |
| 2026-05-01 08:49 | -28.68874 | 121.35244 | 3365 ft | 244 kts | 57° |
| 2026-05-01 08:49 | -28.68290 | 121.36966 | 3312 ft | 227 kts | 93° |
| 2026-05-01 08:49 | -28.68522 | 121.38646 | 3308 ft | 214 kts | 118° |
| 2026-05-01 08:49 | -28.69303 | 121.40090 | 3348 ft | 216 kts | 139° |
| 2026-05-01 08:50 | -28.70444 | 121.41138 | 3384 ft | 206 kts | 152° |
| 2026-05-01 08:50 | -28.71609 | 121.42013 | 3395 ft | 194 kts | 153° |
| 2026-05-01 08:50 | -28.72740 | 121.42778 | 3365 ft | 185 kts | 165° |
| 2026-05-01 08:50 | -28.73959 | 121.42911 | 3351 ft | 173 kts | 195° |
| 2026-05-01 08:51 | -28.75022 | 121.42348 | 3370 ft | 168 kts | 216° |
| 2026-05-01 08:51 | -28.75932 | 121.41579 | 3318 ft | 158 kts | 216° |
| 2026-05-01 08:51 | -28.76823 | 121.40866 | 3118 ft | 154 kts | 217° |
| 2026-05-01 08:51 | -28.77680 | 121.40170 | 2884 ft | 149 kts | 216° |
| 2026-05-01 08:52 | -28.78521 | 121.39501 | 2650 ft | 145 kts | 216° |
| 2026-05-01 08:52 | -28.79321 | 121.38834 | 2468 ft | 141 kts | 216° |
| 2026-05-01 08:52 | -28.80116 | 121.38181 | 2295 ft | 141 kts | 217° |
| 2026-05-01 08:52 | -28.80817 | 121.37529 | 2253 ft | 119 kts | 219° |
| 2026-05-01 08:53 | -28.81499 | 121.36883 | 2239 ft | 130 kts | 218° |
| 2026-05-01 08:53 | -28.82211 | 121.36261 | 2171 ft | 130 kts | 217° |
| 2026-05-01 08:53 | -28.82957 | 121.35641 | 2168 ft | 132 kts | 217° |
| 2026-05-01 08:53 | -28.83680 | 121.35034 | 2046 ft | 127 kts | 216° |
| 2026-05-01 08:54 | -28.84367 | 121.34422 | 1957 ft | 127 kts | 216° |
| 2026-05-01 08:54 | -28.85088 | 121.33818 | 1795 ft | 130 kts | 216° |
| 2026-05-01 08:54 | -28.85818 | 121.33207 | 1652 ft | 130 kts | 216° |
| 2026-05-01 08:54 | -28.86554 | 121.32598 | 1460 ft | 130 kts | 215° |
| 2026-05-01 08:55 | -28.87286 | 121.31988 | 1269 ft | 131 kts | 216° |
| 2026-05-01 08:55 | -28.88092 | 121.31301 | 1532 ft | 161 kts | 216° |
| 2026-05-01 08:55 | -28.89076 | 121.30474 | 2010 ft | 185 kts | 217° |
| 2026-05-01 08:55 | -28.90113 | 121.29583 | 2658 ft | 188 kts | 216° |
| 2026-05-01 08:56 | -28.91184 | 121.28673 | 3035 ft | 196 kts | 215° |
| 2026-05-01 08:56 | -28.92300 | 121.27732 | 3141 ft | 203 kts | 221° |
| 2026-05-01 08:56 | -28.93134 | 121.26438 | 3140 ft | 206 kts | 243° |
| 2026-05-01 08:56 | -28.93438 | 121.24830 | 3159 ft | 211 kts | 265° |
| 2026-05-01 08:57 | -28.93103 | 121.23171 | 3075 ft | 222 kts | 290° |
| 2026-05-01 08:57 | -28.92142 | 121.21782 | 3010 ft | 227 kts | 316° |
| 2026-05-01 08:57 | -28.90753 | 121.20957 | 3139 ft | 228 kts | 340° |
| 2026-05-01 08:57 | -28.89156 | 121.20711 | 3361 ft | 239 kts | 358° |
| 2026-05-01 08:58 | -28.87542 | 121.21277 | 3420 ft | 249 kts | 29° |
| 2026-05-01 08:58 | -28.86121 | 121.22422 | 3426 ft | 246 kts | 38° |
| 2026-05-01 08:58 | -28.84788 | 121.23632 | 3457 ft | 246 kts | 40° |
| 2026-05-01 08:58 | -28.83446 | 121.24867 | 3339 ft | 250 kts | 39° |
| 2026-05-01 08:59 | -28.82085 | 121.26089 | 3205 ft | 247 kts | 38° |
| 2026-05-01 08:59 | -28.80751 | 121.27281 | 3196 ft | 240 kts | 38° |
| 2026-05-01 08:59 | -28.79441 | 121.28449 | 3046 ft | 240 kts | 38° |
| 2026-05-01 08:59 | -28.78106 | 121.29603 | 2928 ft | 236 kts | 37° |
| 2026-05-01 09:00 | -28.76875 | 121.30741 | 3095 ft | 221 kts | 47° |
| 2026-05-01 09:00 | -28.76028 | 121.32192 | 2908 ft | 221 kts | 74° |
| 2026-05-01 09:00 | -28.75802 | 121.33864 | 2762 ft | 210 kts | 98° |
| 2026-05-01 09:00 | -28.76089 | 121.35430 | 2660 ft | 194 kts | 119° |
| 2026-05-01 09:01 | -28.76702 | 121.36749 | 2556 ft | 190 kts | 127° |
| 2026-05-01 09:01 | -28.77489 | 121.37905 | 2489 ft | 180 kts | 153° |
| 2026-05-01 09:01 | -28.78638 | 121.38305 | 2354 ft | 166 kts | 187° |
| 2026-05-01 09:01 | -28.79678 | 121.38061 | 2396 ft | 145 kts | 201° |
| 2026-05-01 09:02 | -28.80573 | 121.37608 | 2317 ft | 132 kts | 208° |
| 2026-05-01 09:02 | -28.81343 | 121.37029 | 2324 ft | 133 kts | 216° |
| 2026-05-01 09:02 | -28.82094 | 121.36401 | 2357 ft | 135 kts | 217° |
| 2026-05-01 09:02 | -28.82858 | 121.35747 | 2299 ft | 142 kts | 217° |
| 2026-05-01 09:03 | -28.83635 | 121.35099 | 2164 ft | 134 kts | 215° |
| 2026-05-01 09:03 | -28.84380 | 121.34454 | 1988 ft | 134 kts | 217° |
| 2026-05-01 09:03 | -28.85123 | 121.33811 | 1792 ft | 135 kts | 217° |
| 2026-05-01 09:03 | -28.85875 | 121.33175 | 1624 ft | 134 kts | 216° |
| 2026-05-01 09:04 | -28.86615 | 121.32555 | 1463 ft | 130 kts | 216° |
| 2026-05-01 09:04 | -28.87344 | 121.31940 | 1266 ft | 130 kts | 217° |
| 2026-05-01 09:04 | -28.88019 | 121.31362 | 1251 ft | 123 kts | 215° |
| 2026-05-01 09:04 | -28.88758 | 121.30726 | 1823 ft | 141 kts | 218° |
| 2026-05-01 09:05 | -28.89574 | 121.29986 | 2580 ft | 160 kts | 217° |
| 2026-05-01 09:05 | -28.90449 | 121.29190 | 3164 ft | 167 kts | 217° |
| 2026-05-01 09:05 | -28.91166 | 121.28052 | 3353 ft | 191 kts | 246° |
| 2026-05-01 09:05 | -28.91272 | 121.26451 | 3451 ft | 221 kts | 276° |
| 2026-05-01 09:06 | -28.90584 | 121.24765 | 3500 ft | 253 kts | 304° |
| 2026-05-01 09:06 | -28.89073 | 121.23581 | 3504 ft | 273 kts | 340° |
| 2026-05-01 09:06 | -28.87226 | 121.23466 | 3552 ft | 263 kts | 6° |
| 2026-05-01 09:06 | -28.85529 | 121.24160 | 3336 ft | 257 kts | 35° |
| 2026-05-01 09:07 | -28.84137 | 121.25354 | 3257 ft | 245 kts | 39° |
| 2026-05-01 09:07 | -28.82814 | 121.26560 | 3165 ft | 244 kts | 39° |
| 2026-05-01 09:07 | -28.81496 | 121.27753 | 3128 ft | 239 kts | 38° |
| 2026-05-01 09:07 | -28.80196 | 121.28907 | 3142 ft | 235 kts | 38° |
| 2026-05-01 09:08 | -28.78889 | 121.30044 | 3131 ft | 237 kts | 37° |
| 2026-05-01 09:08 | -28.77579 | 121.31175 | 3135 ft | 236 kts | 38° |
| 2026-05-01 09:08 | -28.76258 | 121.32298 | 3127 ft | 239 kts | 37° |
| 2026-05-01 09:08 | -28.75011 | 121.33535 | 3099 ft | 237 kts | 56° |
| 2026-05-01 09:09 | -28.74367 | 121.35200 | 3121 ft | 232 kts | 84° |
| 2026-05-01 09:09 | -28.74419 | 121.37019 | 3122 ft | 221 kts | 111° |
| 2026-05-01 09:09 | -28.75053 | 121.38514 | 3025 ft | 200 kts | 133° |
| 2026-05-01 09:09 | -28.76025 | 121.39518 | 2787 ft | 184 kts | 160° |
| 2026-05-01 09:10 | -28.77211 | 121.39776 | 2751 ft | 168 kts | 189° |
| 2026-05-01 09:10 | -28.78289 | 121.39446 | 2699 ft | 161 kts | 202° |
| 2026-05-01 09:10 | -28.79300 | 121.38865 | 2548 ft | 161 kts | 216° |
| 2026-05-01 09:10 | -28.80130 | 121.38067 | 2518 ft | 149 kts | 219° |
| 2026-05-01 09:11 | -28.80930 | 121.37366 | 2347 ft | 140 kts | 215° |
| 2026-05-01 09:11 | -28.81697 | 121.36725 | 2222 ft | 134 kts | 216° |
| 2026-05-01 09:11 | -28.82446 | 121.36102 | 2122 ft | 135 kts | 216° |
| 2026-05-01 09:11 | -28.83186 | 121.35482 | 2118 ft | 131 kts | 217° |
| 2026-05-01 09:12 | -28.83903 | 121.34865 | 1959 ft | 128 kts | 217° |
| 2026-05-01 09:12 | -28.84601 | 121.34252 | 1821 ft | 126 kts | 216° |
| 2026-05-01 09:12 | -28.85307 | 121.33661 | 1730 ft | 130 kts | 216° |
| 2026-05-01 09:12 | -28.86039 | 121.33044 | 1623 ft | 131 kts | 215° |
| 2026-05-01 09:13 | -28.86774 | 121.32424 | 1424 ft | 131 kts | 216° |
| 2026-05-01 09:13 | -28.87505 | 121.31802 | 1240 ft | 129 kts | 216° |
| 2026-05-01 09:13 | -28.88096 | 121.31300 | 1221 ft | 76 kts | 217° |
| 2026-05-01 09:13 | -28.88395 | 121.31047 | 1220 ft | 46 kts | 216° |
| 2026-05-01 09:14 | -28.88636 | 121.30842 | 1222 ft | 40 kts | 217° |
| 2026-05-01 09:14 | -28.88834 | 121.30674 | 1222 ft | 19 kts | 216° |
| 2026-05-01 09:14 | -28.88888 | 121.30620 | 1222 ft | 2 kts | 225° |
| 2026-05-01 09:14 | -28.88904 | 121.30609 | 1222 ft | 1 kts | 174° |
| 2026-05-01 09:15 | -28.88905 | 121.30619 | 1222 ft | 1 kts | 81° |
| 2026-05-01 09:15 | -28.88877 | 121.30641 | 1222 ft | 9 kts | 34° |
| 2026-05-01 09:15 | -28.88792 | 121.30711 | 1223 ft | 22 kts | 36° |
| 2026-05-01 09:15 | -28.88653 | 121.30829 | 1222 ft | 25 kts | 37° |
| 2026-05-01 09:16 | -28.88518 | 121.30943 | 1221 ft | 23 kts | 36° |
| 2026-05-01 09:16 | -28.88391 | 121.31051 | 1220 ft | 22 kts | 37° |
| 2026-05-01 09:16 | -28.88266 | 121.31157 | 1220 ft | 24 kts | 36° |
| 2026-05-01 09:17 | -28.87997 | 121.31387 | 1221 ft | 23 kts | 37° |
| 2026-05-01 09:17 | -28.87872 | 121.31492 | 1223 ft | 22 kts | 35° |
| 2026-05-01 09:17 | -28.87865 | 121.31623 | 1223 ft | 8 kts | 178° |
| 2026-05-01 09:18 | -28.87910 | 121.31626 | 1222 ft | 3 kts | 172° |
| 2026-05-01 09:18 | -28.87915 | 121.31627 | 1222 ft | 0 kts | 172° |
| 2026-05-01 09:20 | -28.87960 | 121.31612 | 1221 ft | 0 kts | 37° |
| 2026-05-01 09:20 | -28.87915 | 121.31627 | 1222 ft | 0 kts | 172° |